sensor_id;sensor_type;location;lat;lon;timestamp;temperature;humidity
24636;DHT22;12772;49.794;10.024;2023-04-30T00:02:08;14.50;51.40
24636;DHT22;12772;49.794;10.024;2023-04-30T00:06:10;14.50;51.50
24636;DHT22;12772;49.794;10.024;2023-04-30T00:10:12;14.50;51.60
24636;DHT22;12772;49.794;10.024;2023-04-30T00:14:14;14.50;51.40
24636;DHT22;12772;49.794;10.024;2023-04-30T00:18:16;14.50;51.30
24636;DHT22;12772;49.794;10.024;2023-04-30T00:22:18;14.50;52.00
24636;DHT22;12772;49.794;10.024;2023-04-30T00:26:20;14.40;51.40
24636;DHT22;12772;49.794;10.024;2023-04-30T00:30:22;14.40;51.70
24636;DHT22;12772;49.794;10.024;2023-04-30T00:34:24;14.40;51.80
24636;DHT22;12772;49.794;10.024;2023-04-30T00:38:26;14.40;51.80
24636;DHT22;12772;49.794;10.024;2023-04-30T00:42:28;14.40;51.90
24636;DHT22;12772;49.794;10.024;2023-04-30T00:46:30;14.40;52.00
24636;DHT22;12772;49.794;10.024;2023-04-30T00:50:35;14.40;52.00
24636;DHT22;12772;49.794;10.024;2023-04-30T00:54:37;14.40;51.90
24636;DHT22;12772;49.794;10.024;2023-04-30T00:58:39;14.30;51.80
24636;DHT22;12772;49.794;10.024;2023-04-30T01:02:43;14.30;51.80
24636;DHT22;12772;49.794;10.024;2023-04-30T01:06:45;14.30;51.80
24636;DHT22;12772;49.794;10.024;2023-04-30T01:11:05;14.30;52.00
24636;DHT22;12772;49.794;10.024;2023-04-30T01:15:15;14.30;52.20
24636;DHT22;12772;49.794;10.024;2023-04-30T01:24:31;14.30;52.20
24636;DHT22;12772;49.794;10.024;2023-04-30T01:28:13;14.20;52.20
24636;DHT22;12772;49.794;10.024;2023-04-30T01:32:16;14.20;52.30
24636;DHT22;12772;49.794;10.024;2023-04-30T01:36:34;14.20;52.30
24636;DHT22;12772;49.794;10.024;2023-04-30T01:40:46;14.20;52.50
24636;DHT22;12772;49.794;10.024;2023-04-30T01:45:15;14.20;52.50
24636;DHT22;12772;49.794;10.024;2023-04-30T01:49:29;14.10;52.40
24636;DHT22;12772;49.794;10.024;2023-04-30T01:53:43;14.10;52.70
24636;DHT22;12772;49.794;10.024;2023-04-30T01:57:58;14.10;52.70
24636;DHT22;12772;49.794;10.024;2023-04-30T02:02:01;14.10;52.60
24636;DHT22;12772;49.794;10.024;2023-04-30T02:06:03;14.10;52.50
24636;DHT22;12772;49.794;10.024;2023-04-30T02:10:06;14.10;52.60
24636;DHT22;12772;49.794;10.024;2023-04-30T02:14:09;14.10;52.60
24636;DHT22;12772;49.794;10.024;2023-04-30T02:18:11;14.10;52.50
24636;DHT22;12772;49.794;10.024;2023-04-30T02:22:13;14.10;52.40
24636;DHT22;12772;49.794;10.024;2023-04-30T02:26:15;14.10;52.70
24636;DHT22;12772;49.794;10.024;2023-04-30T02:30:17;14.10;52.70
24636;DHT22;12772;49.794;10.024;2023-04-30T02:34:20;14.10;52.80
24636;DHT22;12772;49.794;10.024;2023-04-30T02:38:22;14.10;52.80
24636;DHT22;12772;49.794;10.024;2023-04-30T02:42:24;14.10;53.40
24636;DHT22;12772;49.794;10.024;2023-04-30T02:46:26;14.10;52.70
24636;DHT22;12772;49.794;10.024;2023-04-30T02:50:28;14.10;52.80
24636;DHT22;12772;49.794;10.024;2023-04-30T02:54:30;14.10;52.90
24636;DHT22;12772;49.794;10.024;2023-04-30T02:58:32;14.10;52.90
24636;DHT22;12772;49.794;10.024;2023-04-30T03:02:34;14.00;52.90
24636;DHT22;12772;49.794;10.024;2023-04-30T03:06:36;14.00;52.90
24636;DHT22;12772;49.794;10.024;2023-04-30T03:10:38;14.00;53.10
24636;DHT22;12772;49.794;10.024;2023-04-30T03:14:41;14.00;53.20
24636;DHT22;12772;49.794;10.024;2023-04-30T03:18:43;13.90;53.10
24636;DHT22;12772;49.794;10.024;2023-04-30T03:22:45;13.90;53.40
24636;DHT22;12772;49.794;10.024;2023-04-30T03:26:47;13.90;53.40
24636;DHT22;12772;49.794;10.024;2023-04-30T03:30:49;13.80;53.40
24636;DHT22;12772;49.794;10.024;2023-04-30T03:34:51;13.80;53.40
24636;DHT22;12772;49.794;10.024;2023-04-30T03:38:53;13.80;53.50
24636;DHT22;12772;49.794;10.024;2023-04-30T03:42:55;13.80;53.60
24636;DHT22;12772;49.794;10.024;2023-04-30T03:46:57;13.80;53.70
24636;DHT22;12772;49.794;10.024;2023-04-30T03:50:59;13.80;53.80
24636;DHT22;12772;49.794;10.024;2023-04-30T03:55:02;13.80;53.90
24636;DHT22;12772;49.794;10.024;2023-04-30T03:59:05;13.80;53.80
24636;DHT22;12772;49.794;10.024;2023-04-30T04:03:07;13.80;53.80
24636;DHT22;12772;49.794;10.024;2023-04-30T04:07:09;13.80;53.80
24636;DHT22;12772;49.794;10.024;2023-04-30T04:11:11;13.80;53.60
24636;DHT22;12772;49.794;10.024;2023-04-30T04:15:13;13.80;53.70
24636;DHT22;12772;49.794;10.024;2023-04-30T04:19:15;13.80;53.70
24636;DHT22;12772;49.794;10.024;2023-04-30T04:23:17;13.80;53.70
24636;DHT22;12772;49.794;10.024;2023-04-30T04:27:19;13.80;53.70
24636;DHT22;12772;49.794;10.024;2023-04-30T04:31:21;13.70;53.60
24636;DHT22;12772;49.794;10.024;2023-04-30T04:35:24;13.70;53.70
24636;DHT22;12772;49.794;10.024;2023-04-30T04:39:26;13.70;53.70
24636;DHT22;12772;49.794;10.024;2023-04-30T04:43:28;13.60;53.70
24636;DHT22;12772;49.794;10.024;2023-04-30T04:47:30;13.60;53.90
24636;DHT22;12772;49.794;10.024;2023-04-30T04:51:32;13.60;54.00
24636;DHT22;12772;49.794;10.024;2023-04-30T04:55:34;13.60;54.00
24636;DHT22;12772;49.794;10.024;2023-04-30T04:59:36;13.50;54.00
24636;DHT22;12772;49.794;10.024;2023-04-30T05:03:38;13.50;54.30
24636;DHT22;12772;49.794;10.024;2023-04-30T05:07:41;13.50;54.50
24636;DHT22;12772;49.794;10.024;2023-04-30T05:11:43;13.50;54.50
24636;DHT22;12772;49.794;10.024;2023-04-30T05:15:48;13.50;54.60
24636;DHT22;12772;49.794;10.024;2023-04-30T05:19:51;13.50;54.60
24636;DHT22;12772;49.794;10.024;2023-04-30T05:23:53;13.60;54.70
24636;DHT22;12772;49.794;10.024;2023-04-30T05:27:56;13.60;55.30
24636;DHT22;12772;49.794;10.024;2023-04-30T05:31:58;13.60;54.50
24636;DHT22;12772;49.794;10.024;2023-04-30T05:36:00;13.60;54.20
24636;DHT22;12772;49.794;10.024;2023-04-30T05:40:02;13.50;54.30
24636;DHT22;12772;49.794;10.024;2023-04-30T05:44:06;13.50;54.40
24636;DHT22;12772;49.794;10.024;2023-04-30T05:48:07;13.50;54.20
24636;DHT22;12772;49.794;10.024;2023-04-30T05:52:09;13.50;54.30
24636;DHT22;12772;49.794;10.024;2023-04-30T05:56:11;13.50;54.50
24636;DHT22;12772;49.794;10.024;2023-04-30T06:00:14;13.50;54.80
24636;DHT22;12772;49.794;10.024;2023-04-30T06:04:16;13.60;55.10
24636;DHT22;12772;49.794;10.024;2023-04-30T06:08:18;13.60;54.80
24636;DHT22;12772;49.794;10.024;2023-04-30T06:12:20;13.60;54.50
24636;DHT22;12772;49.794;10.024;2023-04-30T06:16:23;13.70;54.60
24636;DHT22;12772;49.794;10.024;2023-04-30T06:20:25;13.80;54.40
24636;DHT22;12772;49.794;10.024;2023-04-30T06:24:27;13.90;53.50
24636;DHT22;12772;49.794;10.024;2023-04-30T06:28:30;13.90;52.80
24636;DHT22;12772;49.794;10.024;2023-04-30T06:32:32;14.00;52.70
24636;DHT22;12772;49.794;10.024;2023-04-30T06:36:34;14.00;52.40
24636;DHT22;12772;49.794;10.024;2023-04-30T06:40:36;14.00;52.20
24636;DHT22;12772;49.794;10.024;2023-04-30T06:44:38;13.90;52.40
24636;DHT22;12772;49.794;10.024;2023-04-30T06:48:40;14.00;52.50
24636;DHT22;12772;49.794;10.024;2023-04-30T06:52:42;14.00;52.90
24636;DHT22;12772;49.794;10.024;2023-04-30T06:56:44;14.10;52.70
24636;DHT22;12772;49.794;10.024;2023-04-30T07:00:47;14.30;52.70
24636;DHT22;12772;49.794;10.024;2023-04-30T07:04:49;14.30;52.00
24636;DHT22;12772;49.794;10.024;2023-04-30T07:08:51;14.40;51.40
24636;DHT22;12772;49.794;10.024;2023-04-30T07:12:53;14.50;51.50
24636;DHT22;12772;49.794;10.024;2023-04-30T07:16:55;14.70;50.90
24636;DHT22;12772;49.794;10.024;2023-04-30T07:20:57;14.80;50.70
24636;DHT22;12772;49.794;10.024;2023-04-30T07:24:59;14.90;49.30
24636;DHT22;12772;49.794;10.024;2023-04-30T07:29:01;15.00;49.40
24636;DHT22;12772;49.794;10.024;2023-04-30T07:33:03;15.20;49.70
24636;DHT22;12772;49.794;10.024;2023-04-30T07:37:08;15.30;49.50
24636;DHT22;12772;49.794;10.024;2023-04-30T07:41:10;15.50;48.90
24636;DHT22;12772;49.794;10.024;2023-04-30T07:45:12;15.60;48.90
24636;DHT22;12772;49.794;10.024;2023-04-30T07:49:14;15.70;48.10
24636;DHT22;12772;49.794;10.024;2023-04-30T07:53:16;15.80;48.30
24636;DHT22;12772;49.794;10.024;2023-04-30T07:57:18;16.00;47.80
24636;DHT22;12772;49.794;10.024;2023-04-30T08:01:20;16.10;47.10
24636;DHT22;12772;49.794;10.024;2023-04-30T08:05:22;16.10;46.10
24636;DHT22;12772;49.794;10.024;2023-04-30T08:09:24;16.20;46.80
24636;DHT22;12772;49.794;10.024;2023-04-30T08:13:26;16.40;47.00
24636;DHT22;12772;49.794;10.024;2023-04-30T08:17:29;16.60;44.70
24636;DHT22;12772;49.794;10.024;2023-04-30T08:21:31;16.70;44.50
24636;DHT22;12772;49.794;10.024;2023-04-30T08:25:33;16.70;43.30
24636;DHT22;12772;49.794;10.024;2023-04-30T08:29:35;16.80;44.00
24636;DHT22;12772;49.794;10.024;2023-04-30T08:33:37;17.00;44.60
24636;DHT22;12772;49.794;10.024;2023-04-30T08:37:41;17.20;43.00
24636;DHT22;12772;49.794;10.024;2023-04-30T08:41:45;17.30;41.40
24636;DHT22;12772;49.794;10.024;2023-04-30T08:45:50;17.40;40.70
24636;DHT22;12772;49.794;10.024;2023-04-30T08:49:52;17.50;38.40
24636;DHT22;12772;49.794;10.024;2023-04-30T08:53:55;17.60;38.50
24636;DHT22;12772;49.794;10.024;2023-04-30T08:57:58;17.80;38.70
24636;DHT22;12772;49.794;10.024;2023-04-30T09:02:00;17.90;34.80
24636;DHT22;12772;49.794;10.024;2023-04-30T09:06:02;17.90;34.60
24636;DHT22;12772;49.794;10.024;2023-04-30T09:10:14;17.90;35.50
24636;DHT22;12772;49.794;10.024;2023-04-30T09:14:23;18.10;35.50
24636;DHT22;12772;49.794;10.024;2023-04-30T09:18:26;18.30;35.40
24636;DHT22;12772;49.794;10.024;2023-04-30T09:22:29;18.50;34.40
24636;DHT22;12772;49.794;10.024;2023-04-30T09:26:33;18.60;34.20
24636;DHT22;12772;49.794;10.024;2023-04-30T09:30:36;18.80;33.90
24636;DHT22;12772;49.794;10.024;2023-04-30T09:34:39;18.80;32.70
24636;DHT22;12772;49.794;10.024;2023-04-30T09:38:43;19.00;35.00
24636;DHT22;12772;49.794;10.024;2023-04-30T09:42:58;19.10;34.80
24636;DHT22;12772;49.794;10.024;2023-04-30T09:47:00;19.30;32.00
24636;DHT22;12772;49.794;10.024;2023-04-30T09:51:03;19.40;31.50
24636;DHT22;12772;49.794;10.024;2023-04-30T09:55:05;19.40;32.60
24636;DHT22;12772;49.794;10.024;2023-04-30T09:59:08;19.50;32.70
24636;DHT22;12772;49.794;10.024;2023-04-30T10:03:13;19.70;32.70
24636;DHT22;12772;49.794;10.024;2023-04-30T10:07:18;19.80;32.00
24636;DHT22;12772;49.794;10.024;2023-04-30T10:11:25;19.90;30.50
24636;DHT22;12772;49.794;10.024;2023-04-30T10:15:36;20.00;31.00
24636;DHT22;12772;49.794;10.024;2023-04-30T10:19:42;20.20;31.00
24636;DHT22;12772;49.794;10.024;2023-04-30T10:23:47;20.30;30.40
24636;DHT22;12772;49.794;10.024;2023-04-30T10:27:50;20.40;29.70
24636;DHT22;12772;49.794;10.024;2023-04-30T10:31:53;20.50;29.60
24636;DHT22;12772;49.794;10.024;2023-04-30T10:35:58;20.60;29.20
24636;DHT22;12772;49.794;10.024;2023-04-30T10:40:01;20.70;28.90
24636;DHT22;12772;49.794;10.024;2023-04-30T10:44:06;20.70;28.30
24636;DHT22;12772;49.794;10.024;2023-04-30T10:48:08;20.80;28.30
24636;DHT22;12772;49.794;10.024;2023-04-30T10:52:11;20.80;26.90
24636;DHT22;12772;49.794;10.024;2023-04-30T10:56:13;20.90;28.40
24636;DHT22;12772;49.794;10.024;2023-04-30T11:00:18;21.00;28.50
24636;DHT22;12772;49.794;10.024;2023-04-30T11:04:20;21.10;28.10
24636;DHT22;12772;49.794;10.024;2023-04-30T11:08:33;21.20;27.40
24636;DHT22;12772;49.794;10.024;2023-04-30T11:12:40;21.30;27.00
24636;DHT22;12772;49.794;10.024;2023-04-30T11:16:42;21.40;26.60
24636;DHT22;12772;49.794;10.024;2023-04-30T11:20:50;21.50;26.10
24636;DHT22;12772;49.794;10.024;2023-04-30T11:29:00;21.30;26.30
24636;DHT22;12772;49.794;10.024;2023-04-30T11:33:04;21.40;26.90
24636;DHT22;12772;49.794;10.024;2023-04-30T11:37:08;21.50;25.60
24636;DHT22;12772;49.794;10.024;2023-04-30T11:41:12;21.60;26.40
24636;DHT22;12772;49.794;10.024;2023-04-30T11:45:15;21.60;25.50
24636;DHT22;12772;49.794;10.024;2023-04-30T11:49:20;21.60;25.70
24636;DHT22;12772;49.794;10.024;2023-04-30T11:53:28;21.60;25.20
24636;DHT22;12772;49.794;10.024;2023-04-30T11:57:38;21.60;25.80
24636;DHT22;12772;49.794;10.024;2023-04-30T12:01:42;21.70;26.40
24636;DHT22;12772;49.794;10.024;2023-04-30T12:05:45;21.80;26.00
24636;DHT22;12772;49.794;10.024;2023-04-30T12:09:54;21.80;26.10
24636;DHT22;12772;49.794;10.024;2023-04-30T12:14:00;21.90;26.70
24636;DHT22;12772;49.794;10.024;2023-04-30T12:18:11;22.00;25.80
24636;DHT22;12772;49.794;10.024;2023-04-30T12:22:15;22.00;24.70
24636;DHT22;12772;49.794;10.024;2023-04-30T12:26:17;22.00;25.60
24636;DHT22;12772;49.794;10.024;2023-04-30T12:30:28;22.00;24.70
24636;DHT22;12772;49.794;10.024;2023-04-30T12:34:31;22.10;25.10
24636;DHT22;12772;49.794;10.024;2023-04-30T12:38:33;22.00;24.40
24636;DHT22;12772;49.794;10.024;2023-04-30T12:42:35;22.10;25.50
24636;DHT22;12772;49.794;10.024;2023-04-30T12:46:37;22.00;24.80
24636;DHT22;12772;49.794;10.024;2023-04-30T12:50:40;22.10;25.20
24636;DHT22;12772;49.794;10.024;2023-04-30T12:54:42;22.20;24.80
24636;DHT22;12772;49.794;10.024;2023-04-30T12:58:46;22.30;25.20
24636;DHT22;12772;49.794;10.024;2023-04-30T13:02:50;22.40;25.00
24636;DHT22;12772;49.794;10.024;2023-04-30T13:06:52;22.60;24.10
24636;DHT22;12772;49.794;10.024;2023-04-30T13:10:54;22.60;24.10
24636;DHT22;12772;49.794;10.024;2023-04-30T13:14:56;22.60;23.70
24636;DHT22;12772;49.794;10.024;2023-04-30T13:18:58;22.60;24.10
24636;DHT22;12772;49.794;10.024;2023-04-30T13:23:01;22.70;24.20
24636;DHT22;12772;49.794;10.024;2023-04-30T13:27:04;22.80;24.30
24636;DHT22;12772;49.794;10.024;2023-04-30T13:31:06;22.80;23.50
24636;DHT22;12772;49.794;10.024;2023-04-30T13:35:08;22.70;22.30
24636;DHT22;12772;49.794;10.024;2023-04-30T13:39:11;22.60;23.40
24636;DHT22;12772;49.794;10.024;2023-04-30T13:43:13;22.60;23.90
24636;DHT22;12772;49.794;10.024;2023-04-30T13:47:15;22.60;23.30
24636;DHT22;12772;49.794;10.024;2023-04-30T13:51:17;22.70;22.60
24636;DHT22;12772;49.794;10.024;2023-04-30T13:55:20;22.60;23.20
24636;DHT22;12772;49.794;10.024;2023-04-30T13:59:22;22.50;22.50
24636;DHT22;12772;49.794;10.024;2023-04-30T14:03:24;22.20;22.70
24636;DHT22;12772;49.794;10.024;2023-04-30T14:07:26;22.00;22.10
24636;DHT22;12772;49.794;10.024;2023-04-30T14:11:28;22.00;23.60
24636;DHT22;12772;49.794;10.024;2023-04-30T14:15:30;22.10;23.70
24636;DHT22;12772;49.794;10.024;2023-04-30T14:19:33;22.10;23.70
24636;DHT22;12772;49.794;10.024;2023-04-30T14:23:35;22.20;23.80
24636;DHT22;12772;49.794;10.024;2023-04-30T14:27:39;22.20;23.30
24636;DHT22;12772;49.794;10.024;2023-04-30T14:31:41;22.20;23.80
24636;DHT22;12772;49.794;10.024;2023-04-30T14:35:43;22.10;23.20
24636;DHT22;12772;49.794;10.024;2023-04-30T14:39:46;22.10;23.70
24636;DHT22;12772;49.794;10.024;2023-04-30T14:43:48;22.10;23.70
24636;DHT22;12772;49.794;10.024;2023-04-30T14:47:52;22.10;23.70
24636;DHT22;12772;49.794;10.024;2023-04-30T14:51:54;22.10;23.70
24636;DHT22;12772;49.794;10.024;2023-04-30T14:55:56;22.00;23.60
24636;DHT22;12772;49.794;10.024;2023-04-30T14:59:58;22.00;23.60
24636;DHT22;12772;49.794;10.024;2023-04-30T15:04:00;22.00;23.60
24636;DHT22;12772;49.794;10.024;2023-04-30T15:08:03;22.10;23.70
24636;DHT22;12772;49.794;10.024;2023-04-30T15:12:06;22.20;23.80
24636;DHT22;12772;49.794;10.024;2023-04-30T15:16:08;22.20;23.50
24636;DHT22;12772;49.794;10.024;2023-04-30T15:20:10;22.10;22.90
24636;DHT22;12772;49.794;10.024;2023-04-30T15:24:12;22.20;23.10
24636;DHT22;12772;49.794;10.024;2023-04-30T15:28:15;22.10;23.20
24636;DHT22;12772;49.794;10.024;2023-04-30T15:32:18;21.90;22.40
24636;DHT22;12772;49.794;10.024;2023-04-30T15:36:21;21.80;22.60
24636;DHT22;12772;49.794;10.024;2023-04-30T15:40:23;21.70;23.30
24636;DHT22;12772;49.794;10.024;2023-04-30T15:44:25;21.60;23.30
24636;DHT22;12772;49.794;10.024;2023-04-30T15:48:27;21.60;23.30
24636;DHT22;12772;49.794;10.024;2023-04-30T15:52:30;21.60;24.00
24636;DHT22;12772;49.794;10.024;2023-04-30T15:56:34;21.60;24.30
24636;DHT22;12772;49.794;10.024;2023-04-30T16:00:37;21.60;24.20
24636;DHT22;12772;49.794;10.024;2023-04-30T16:04:39;21.60;24.30
24636;DHT22;12772;49.794;10.024;2023-04-30T16:08:42;21.50;24.30
24636;DHT22;12772;49.794;10.024;2023-04-30T16:12:45;21.40;24.00
24636;DHT22;12772;49.794;10.024;2023-04-30T16:16:47;21.40;24.50
24636;DHT22;12772;49.794;10.024;2023-04-30T16:20:50;21.30;24.60
24636;DHT22;12772;49.794;10.024;2023-04-30T16:24:53;21.30;24.60
24636;DHT22;12772;49.794;10.024;2023-04-30T16:28:55;21.30;24.70
24636;DHT22;12772;49.794;10.024;2023-04-30T16:32:57;21.30;24.50
24636;DHT22;12772;49.794;10.024;2023-04-30T16:37:02;21.30;24.80
24636;DHT22;12772;49.794;10.024;2023-04-30T16:41:04;21.20;24.40
24636;DHT22;12772;49.794;10.024;2023-04-30T16:45:07;21.20;24.80
24636;DHT22;12772;49.794;10.024;2023-04-30T16:49:09;21.10;24.90
24636;DHT22;12772;49.794;10.024;2023-04-30T16:53:11;21.10;25.00
24636;DHT22;12772;49.794;10.024;2023-04-30T16:57:13;21.10;25.30
24636;DHT22;12772;49.794;10.024;2023-04-30T17:01:15;21.00;24.90
24636;DHT22;12772;49.794;10.024;2023-04-30T17:05:17;20.90;24.80
24636;DHT22;12772;49.794;10.024;2023-04-30T17:09:21;20.90;24.90
24636;DHT22;12772;49.794;10.024;2023-04-30T17:13:23;20.80;25.00
24636;DHT22;12772;49.794;10.024;2023-04-30T17:17:25;20.80;25.20
24636;DHT22;12772;49.794;10.024;2023-04-30T17:21:27;20.70;25.50
24636;DHT22;12772;49.794;10.024;2023-04-30T17:25:29;20.70;25.70
24636;DHT22;12772;49.794;10.024;2023-04-30T17:29:33;20.60;25.90
24636;DHT22;12772;49.794;10.024;2023-04-30T17:33:35;20.60;25.80
24636;DHT22;12772;49.794;10.024;2023-04-30T17:37:37;20.50;25.90
24636;DHT22;12772;49.794;10.024;2023-04-30T17:41:40;20.40;26.20
24636;DHT22;12772;49.794;10.024;2023-04-30T17:45:42;20.30;26.30
24636;DHT22;12772;49.794;10.024;2023-04-30T17:49:45;20.30;26.30
24636;DHT22;12772;49.794;10.024;2023-04-30T17:53:47;20.20;26.40
24636;DHT22;12772;49.794;10.024;2023-04-30T17:57:49;20.10;26.40
24636;DHT22;12772;49.794;10.024;2023-04-30T18:01:51;20.00;26.80
24636;DHT22;12772;49.794;10.024;2023-04-30T18:05:53;19.90;27.00
24636;DHT22;12772;49.794;10.024;2023-04-30T18:09:55;19.80;27.20
24636;DHT22;12772;49.794;10.024;2023-04-30T18:13:57;19.70;27.40
24636;DHT22;12772;49.794;10.024;2023-04-30T18:18:00;19.60;27.30
24636;DHT22;12772;49.794;10.024;2023-04-30T18:22:03;19.50;27.20
24636;DHT22;12772;49.794;10.024;2023-04-30T18:26:05;19.40;27.10
24636;DHT22;12772;49.794;10.024;2023-04-30T18:30:08;19.30;27.80
24636;DHT22;12772;49.794;10.024;2023-04-30T18:34:11;19.10;27.90
24636;DHT22;12772;49.794;10.024;2023-04-30T18:38:13;19.00;28.30
24636;DHT22;12772;49.794;10.024;2023-04-30T18:42:16;18.90;28.60
24636;DHT22;12772;49.794;10.024;2023-04-30T18:46:17;18.80;28.80
24636;DHT22;12772;49.794;10.024;2023-04-30T18:50:19;18.70;28.90
24636;DHT22;12772;49.794;10.024;2023-04-30T18:54:22;18.60;29.60
24636;DHT22;12772;49.794;10.024;2023-04-30T18:58:24;18.50;29.20
24636;DHT22;12772;49.794;10.024;2023-04-30T19:02:26;18.40;29.40
24636;DHT22;12772;49.794;10.024;2023-04-30T19:06:28;18.30;29.50
24636;DHT22;12772;49.794;10.024;2023-04-30T19:10:34;18.20;29.40
24636;DHT22;12772;49.794;10.024;2023-04-30T19:14:36;18.10;29.50
24636;DHT22;12772;49.794;10.024;2023-04-30T19:18:38;18.10;29.70
24636;DHT22;12772;49.794;10.024;2023-04-30T19:22:41;17.90;29.70
24636;DHT22;12772;49.794;10.024;2023-04-30T19:26:43;17.80;29.80
24636;DHT22;12772;49.794;10.024;2023-04-30T19:30:45;17.80;30.10
24636;DHT22;12772;49.794;10.024;2023-04-30T19:34:47;17.70;30.10
24636;DHT22;12772;49.794;10.024;2023-04-30T19:38:50;17.60;30.10
24636;DHT22;12772;49.794;10.024;2023-04-30T19:42:53;17.50;30.30
24636;DHT22;12772;49.794;10.024;2023-04-30T19:46:55;17.30;30.40
24636;DHT22;12772;49.794;10.024;2023-04-30T19:50:57;17.20;30.90
24636;DHT22;12772;49.794;10.024;2023-04-30T19:54:59;17.20;31.00
24636;DHT22;12772;49.794;10.024;2023-04-30T19:59:02;17.10;30.80
24636;DHT22;12772;49.794;10.024;2023-04-30T20:03:04;17.00;30.80
24636;DHT22;12772;49.794;10.024;2023-04-30T20:07:06;17.00;31.30
24636;DHT22;12772;49.794;10.024;2023-04-30T20:11:08;16.90;31.50
24636;DHT22;12772;49.794;10.024;2023-04-30T20:15:10;16.80;31.50
24636;DHT22;12772;49.794;10.024;2023-04-30T20:19:12;16.80;31.80
24636;DHT22;12772;49.794;10.024;2023-04-30T20:23:15;16.70;32.10
24636;DHT22;12772;49.794;10.024;2023-04-30T20:27:18;16.70;32.30
24636;DHT22;12772;49.794;10.024;2023-04-30T20:31:20;16.60;32.30
24636;DHT22;12772;49.794;10.024;2023-04-30T20:35:22;16.50;32.50
24636;DHT22;12772;49.794;10.024;2023-04-30T20:39:24;16.50;32.60
24636;DHT22;12772;49.794;10.024;2023-04-30T20:43:26;16.50;32.60
24636;DHT22;12772;49.794;10.024;2023-04-30T20:47:28;16.30;32.40
24636;DHT22;12772;49.794;10.024;2023-04-30T20:51:30;16.30;32.60
24636;DHT22;12772;49.794;10.024;2023-04-30T20:55:32;16.30;32.70
24636;DHT22;12772;49.794;10.024;2023-04-30T20:59:35;16.20;32.60
24636;DHT22;12772;49.794;10.024;2023-04-30T21:03:37;16.20;32.60
24636;DHT22;12772;49.794;10.024;2023-04-30T21:07:39;16.10;32.70
24636;DHT22;12772;49.794;10.024;2023-04-30T21:11:42;16.10;32.80
24636;DHT22;12772;49.794;10.024;2023-04-30T21:15:44;16.10;33.10
24636;DHT22;12772;49.794;10.024;2023-04-30T21:19:47;16.00;33.00
24636;DHT22;12772;49.794;10.024;2023-04-30T21:23:49;16.00;33.10
24636;DHT22;12772;49.794;10.024;2023-04-30T21:27:51;15.90;33.30
24636;DHT22;12772;49.794;10.024;2023-04-30T21:31:53;15.90;33.60
24636;DHT22;12772;49.794;10.024;2023-04-30T21:35:56;15.80;33.60
24636;DHT22;12772;49.794;10.024;2023-04-30T21:39:58;15.70;33.70
24636;DHT22;12772;49.794;10.024;2023-04-30T21:44:00;15.60;34.00
24636;DHT22;12772;49.794;10.024;2023-04-30T21:48:02;15.50;34.40
24636;DHT22;12772;49.794;10.024;2023-04-30T21:52:05;15.50;34.80
24636;DHT22;12772;49.794;10.024;2023-04-30T21:56:09;15.40;35.00
24636;DHT22;12772;49.794;10.024;2023-04-30T22:00:11;15.30;35.30
24636;DHT22;12772;49.794;10.024;2023-04-30T22:04:14;15.20;35.40
24636;DHT22;12772;49.794;10.024;2023-04-30T22:08:16;15.30;35.70
24636;DHT22;12772;49.794;10.024;2023-04-30T22:12:18;15.20;35.50
24636;DHT22;12772;49.794;10.024;2023-04-30T22:16:21;15.20;35.80
24636;DHT22;12772;49.794;10.024;2023-04-30T22:20:23;15.10;35.70
24636;DHT22;12772;49.794;10.024;2023-04-30T22:24:25;15.10;35.70
24636;DHT22;12772;49.794;10.024;2023-04-30T22:28:27;15.00;35.60
24636;DHT22;12772;49.794;10.024;2023-04-30T22:32:29;15.00;35.60
24636;DHT22;12772;49.794;10.024;2023-04-30T22:36:32;15.00;35.60
24636;DHT22;12772;49.794;10.024;2023-04-30T22:40:37;15.00;35.60
24636;DHT22;12772;49.794;10.024;2023-04-30T22:44:39;15.00;35.60
24636;DHT22;12772;49.794;10.024;2023-04-30T22:48:42;15.00;35.60
24636;DHT22;12772;49.794;10.024;2023-04-30T22:52:44;14.90;35.50
24636;DHT22;12772;49.794;10.024;2023-04-30T22:56:46;14.90;35.50
24636;DHT22;12772;49.794;10.024;2023-04-30T23:00:48;14.90;35.50
24636;DHT22;12772;49.794;10.024;2023-04-30T23:04:50;14.80;35.40
24636;DHT22;12772;49.794;10.024;2023-04-30T23:08:52;14.80;35.40
24636;DHT22;12772;49.794;10.024;2023-04-30T23:12:54;14.70;36.10
24636;DHT22;12772;49.794;10.024;2023-04-30T23:16:58;14.60;36.50
24636;DHT22;12772;49.794;10.024;2023-04-30T23:21:00;14.60;36.60
24636;DHT22;12772;49.794;10.024;2023-04-30T23:25:03;14.60;36.50
24636;DHT22;12772;49.794;10.024;2023-04-30T23:29:05;14.50;36.50
24636;DHT22;12772;49.794;10.024;2023-04-30T23:33:07;14.40;36.70
24636;DHT22;12772;49.794;10.024;2023-04-30T23:37:09;14.40;37.00
24636;DHT22;12772;49.794;10.024;2023-04-30T23:41:12;14.40;37.20
24636;DHT22;12772;49.794;10.024;2023-04-30T23:45:14;14.30;37.40
24636;DHT22;12772;49.794;10.024;2023-04-30T23:49:16;14.30;37.30
24636;DHT22;12772;49.794;10.024;2023-04-30T23:53:18;14.30;37.30
24636;DHT22;12772;49.794;10.024;2023-04-30T23:57:20;14.30;37.30
